sensor_id;sensor_type;location;lat;lon;timestamp;pressure;altitude;pressure_sealevel;temperature;humidity
40850;BME280;26571;41.610;25.380;2023-03-21T00:00:17;98300.63;;;9.67;nan
40850;BME280;26571;41.610;25.380;2023-03-21T00:02:43;98294.03;;;9.63;nan
40850;BME280;26571;41.610;25.380;2023-03-21T00:05:08;98258.88;;;9.40;nan
40850;BME280;26571;41.610;25.380;2023-03-21T00:07:34;98289.78;;;9.70;nan
40850;BME280;26571;41.610;25.380;2023-03-21T00:09:59;98288.63;;;9.73;nan
40850;BME280;26571;41.610;25.380;2023-03-21T00:12:24;98275.31;;;9.66;nan
40850;BME280;26571;41.610;25.380;2023-03-21T00:14:50;98298.31;;;9.72;nan
40850;BME280;26571;41.610;25.380;2023-03-21T00:17:18;98296.69;;;9.71;nan
40850;BME280;26571;41.610;25.380;2023-03-21T00:19:46;98291.28;;;9.65;nan
40850;BME280;26571;41.610;25.380;2023-03-21T00:22:13;98289.44;;;9.73;nan
40850;BME280;26571;41.610;25.380;2023-03-21T00:24:39;98281.06;;;9.86;nan
40850;BME280;26571;41.610;25.380;2023-03-21T00:27:04;98279.25;;;9.78;nan
40850;BME280;26571;41.610;25.380;2023-03-21T00:29:30;98281.25;;;9.76;nan
40850;BME280;26571;41.610;25.380;2023-03-21T00:31:55;98276.00;;;9.84;nan
40850;BME280;26571;41.610;25.380;2023-03-21T00:34:21;98283.53;;;9.79;nan
40850;BME280;26571;41.610;25.380;2023-03-21T00:36:46;98278.75;;;9.83;nan
40850;BME280;26571;41.610;25.380;2023-03-21T00:39:11;98239.84;;;9.54;nan
40850;BME280;26571;41.610;25.380;2023-03-21T00:41:38;98278.09;;;9.73;nan
40850;BME280;26571;41.610;25.380;2023-03-21T00:44:04;98277.78;;;9.76;nan
40850;BME280;26571;41.610;25.380;2023-03-21T00:46:29;98268.59;;;9.80;nan
40850;BME280;26571;41.610;25.380;2023-03-21T00:48:55;98268.41;;;9.73;nan
40850;BME280;26571;41.610;25.380;2023-03-21T00:51:21;98263.81;;;9.67;nan
40850;BME280;26571;41.610;25.380;2023-03-21T00:53:55;98264.81;;;9.58;nan
40850;BME280;26571;41.610;25.380;2023-03-21T00:56:20;98260.56;;;9.65;nan
40850;BME280;26571;41.610;25.380;2023-03-21T00:58:46;98261.84;;;9.69;nan
40850;BME280;26571;41.610;25.380;2023-03-21T01:01:11;98255.94;;;9.75;nan
40850;BME280;26571;41.610;25.380;2023-03-21T01:03:37;98250.19;;;9.64;nan
40850;BME280;26571;41.610;25.380;2023-03-21T01:06:09;98240.84;;;9.61;nan
40850;BME280;26571;41.610;25.380;2023-03-21T01:08:38;98240.50;;;9.72;nan
40850;BME280;26571;41.610;25.380;2023-03-21T01:11:07;98201.91;;;9.48;nan
40850;BME280;26571;41.610;25.380;2023-03-21T01:13:34;98246.06;;;9.77;nan
40850;BME280;26571;41.610;25.380;2023-03-21T01:16:00;98243.28;;;9.71;nan
40850;BME280;26571;41.610;25.380;2023-03-21T01:18:27;98238.53;;;9.66;nan
40850;BME280;26571;41.610;25.380;2023-03-21T01:20:58;98191.25;;;9.25;nan
40850;BME280;26571;41.610;25.380;2023-03-21T01:23:24;98227.19;;;9.57;nan
40850;BME280;26571;41.610;25.380;2023-03-21T01:25:55;98233.94;;;9.52;nan
40850;BME280;26571;41.610;25.380;2023-03-21T01:28:23;98223.91;;;9.47;nan
40850;BME280;26571;41.610;25.380;2023-03-21T01:30:50;98240.50;;;9.48;nan
40850;BME280;26571;41.610;25.380;2023-03-21T01:33:16;98221.44;;;9.54;nan
40850;BME280;26571;41.610;25.380;2023-03-21T01:35:42;98227.69;;;9.45;nan
40850;BME280;26571;41.610;25.380;2023-03-21T01:38:07;98214.56;;;9.37;nan
40850;BME280;26571;41.610;25.380;2023-03-21T01:40:35;98210.94;;;9.38;nan
40850;BME280;26571;41.610;25.380;2023-03-21T01:43:01;98214.72;;;9.35;nan
40850;BME280;26571;41.610;25.380;2023-03-21T01:48:48;98201.41;;;9.37;nan
40850;BME280;26571;41.610;25.380;2023-03-21T01:51:15;98200.56;;;9.44;nan
40850;BME280;26571;41.610;25.380;2023-03-21T01:53:41;98198.78;;;9.53;nan
40850;BME280;26571;41.610;25.380;2023-03-21T01:56:18;98199.78;;;9.60;nan
40850;BME280;26571;41.610;25.380;2023-03-21T01:58:47;98192.22;;;9.65;nan
40850;BME280;26571;41.610;25.380;2023-03-21T02:01:13;98197.13;;;9.68;nan
40850;BME280;26571;41.610;25.380;2023-03-21T02:03:41;98183.00;;;9.61;nan
40850;BME280;26571;41.610;25.380;2023-03-21T02:06:35;98193.22;;;9.56;nan
40850;BME280;26571;41.610;25.380;2023-03-21T02:09:07;98186.81;;;9.42;nan
40850;BME280;26571;41.610;25.380;2023-03-21T02:11:35;98190.25;;;9.43;nan
40850;BME280;26571;41.610;25.380;2023-03-21T02:14:02;98187.63;;;9.43;nan
40850;BME280;26571;41.610;25.380;2023-03-21T02:16:34;98186.31;;;9.39;nan
40850;BME280;26571;41.610;25.380;2023-03-21T02:27:23;98190.09;;;9.36;nan
40850;BME280;26571;41.610;25.380;2023-03-21T02:35:27;98182.03;;;9.21;nan
40850;BME280;26571;41.610;25.380;2023-03-21T02:38:17;98174.81;;;9.23;nan
40850;BME280;26571;41.610;25.380;2023-03-21T02:41:02;98178.75;;;9.27;nan
40850;BME280;26571;41.610;25.380;2023-03-21T02:47:06;98172.50;;;9.28;nan
40850;BME280;26571;41.610;25.380;2023-03-21T02:49:25;98171.22;;;9.16;nan
40850;BME280;26571;41.610;25.380;2023-03-21T02:51:56;98171.88;;;9.10;nan
40850;BME280;26571;41.610;25.380;2023-03-21T02:54:23;98170.88;;;9.03;nan
40850;BME280;26571;41.610;25.380;2023-03-21T02:56:52;98174.16;;;8.97;nan
40850;BME280;26571;41.610;25.380;2023-03-21T02:59:21;98172.66;;;8.86;nan
40850;BME280;26571;41.610;25.380;2023-03-21T03:01:50;98164.28;;;8.83;nan
40850;BME280;26571;41.610;25.380;2023-03-21T03:04:20;98172.81;;;8.76;nan
40850;BME280;26571;41.610;25.380;2023-03-21T03:07:01;98172.94;;;8.75;nan
40850;BME280;26571;41.610;25.380;2023-03-21T03:20:59;98185.38;;;8.65;nan
40850;BME280;26571;41.610;25.380;2023-03-21T03:26:16;98177.34;;;8.58;nan
40850;BME280;26571;41.610;25.380;2023-03-21T03:28:55;98179.16;;;8.58;nan
40850;BME280;26571;41.610;25.380;2023-03-21T03:31:24;98139.19;;;8.21;nan
40850;BME280;26571;41.610;25.380;2023-03-21T03:33:54;98178.81;;;8.52;nan
40850;BME280;26571;41.610;25.380;2023-03-21T03:36:24;98180.56;;;8.44;nan
40850;BME280;26571;41.610;25.380;2023-03-21T03:38:52;98180.63;;;8.60;nan
40850;BME280;26571;41.610;25.380;2023-03-21T03:41:26;98182.59;;;8.58;nan
40850;BME280;26571;41.610;25.380;2023-03-21T03:43:55;98182.28;;;8.61;nan
40850;BME280;26571;41.610;25.380;2023-03-21T03:46:35;98178.63;;;8.46;nan
40850;BME280;26571;41.610;25.380;2023-03-21T03:49:07;98188.41;;;8.36;nan
40850;BME280;26571;41.610;25.380;2023-03-21T03:51:39;98179.00;;;8.25;nan
40850;BME280;26571;41.610;25.380;2023-03-21T03:54:13;98177.34;;;8.16;nan
40850;BME280;26571;41.610;25.380;2023-03-21T03:56:42;98176.66;;;8.14;nan
40850;BME280;26571;41.610;25.380;2023-03-21T03:59:07;98180.38;;;8.03;nan
40850;BME280;26571;41.610;25.380;2023-03-21T04:01:33;98182.66;;;7.98;nan
40850;BME280;26571;41.610;25.380;2023-03-21T04:03:59;98194.13;;;7.97;nan
40850;BME280;26571;41.610;25.380;2023-03-21T04:06:25;98172.63;;;7.93;nan
40850;BME280;26571;41.610;25.380;2023-03-21T04:08:55;98141.28;;;7.84;nan
40850;BME280;26571;41.610;25.380;2023-03-21T04:11:21;98159.56;;;8.01;nan
40850;BME280;26571;41.610;25.380;2023-03-21T04:13:47;98177.47;;;8.14;nan
40850;BME280;26571;41.610;25.380;2023-03-21T04:16:12;98188.00;;;8.22;nan
40850;BME280;26571;41.610;25.380;2023-03-21T04:18:42;98193.91;;;8.24;nan
40850;BME280;26571;41.610;25.380;2023-03-21T04:21:09;98200.13;;;8.23;nan
40850;BME280;26571;41.610;25.380;2023-03-21T04:23:34;98187.31;;;8.20;nan
40850;BME280;26571;41.610;25.380;2023-03-21T04:26:01;98192.91;;;8.17;nan
40850;BME280;26571;41.610;25.380;2023-03-21T04:28:26;98199.63;;;8.20;nan
40850;BME280;26571;41.610;25.380;2023-03-21T04:30:52;98188.13;;;8.13;nan
40850;BME280;26571;41.610;25.380;2023-03-21T04:33:17;98189.00;;;8.21;nan
40850;BME280;26571;41.610;25.380;2023-03-21T04:35:44;98195.31;;;8.37;nan
40850;BME280;26571;41.610;25.380;2023-03-21T04:38:10;98198.63;;;8.47;nan
40850;BME280;26571;41.610;25.380;2023-03-21T04:40:35;98163.03;;;8.36;nan
40850;BME280;26571;41.610;25.380;2023-03-21T04:43:00;98187.97;;;8.48;nan
40850;BME280;26571;41.610;25.380;2023-03-21T04:45:26;98191.09;;;8.60;nan
40850;BME280;26571;41.610;25.380;2023-03-21T04:47:52;98191.31;;;8.67;nan
40850;BME280;26571;41.610;25.380;2023-03-21T04:50:17;98188.53;;;8.68;nan
40850;BME280;26571;41.610;25.380;2023-03-21T04:52:43;98189.69;;;8.66;nan
40850;BME280;26571;41.610;25.380;2023-03-21T04:55:08;98199.53;;;8.72;nan
40850;BME280;26571;41.610;25.380;2023-03-21T04:57:38;98211.34;;;8.76;nan
40850;BME280;26571;41.610;25.380;2023-03-21T05:00:06;98222.66;;;8.76;nan
40850;BME280;26571;41.610;25.380;2023-03-21T05:02:34;98211.69;;;8.81;nan
40850;BME280;26571;41.610;25.380;2023-03-21T05:04:59;98213.50;;;8.89;nan
40850;BME280;26571;41.610;25.380;2023-03-21T05:07:24;98218.13;;;9.03;nan
40850;BME280;26571;41.610;25.380;2023-03-21T05:09:51;98222.91;;;9.07;nan
40850;BME280;26571;41.610;25.380;2023-03-21T05:12:16;98226.38;;;9.16;nan
40850;BME280;26571;41.610;25.380;2023-03-21T05:14:43;98228.50;;;9.29;nan
40850;BME280;26571;41.610;25.380;2023-03-21T05:17:08;98230.16;;;9.30;nan
40850;BME280;26571;41.610;25.380;2023-03-21T05:19:34;98227.00;;;9.02;nan
40850;BME280;26571;41.610;25.380;2023-03-21T05:22:02;98219.44;;;9.07;nan
40850;BME280;26571;41.610;25.380;2023-03-21T05:24:34;98211.94;;;9.20;nan
40850;BME280;26571;41.610;25.380;2023-03-21T05:27:03;98227.34;;;9.64;nan
40850;BME280;26571;41.610;25.380;2023-03-21T05:29:31;98219.22;;;10.15;nan
40850;BME280;26571;41.610;25.380;2023-03-21T05:31:57;98226.13;;;10.07;nan
40850;BME280;26571;41.610;25.380;2023-03-21T05:34:23;98195.47;;;9.75;nan
40850;BME280;26571;41.610;25.380;2023-03-21T05:36:49;98230.72;;;10.22;nan
40850;BME280;26571;41.610;25.380;2023-03-21T05:39:15;98219.13;;;10.86;nan
40850;BME280;26571;41.610;25.380;2023-03-21T05:41:41;98227.75;;;11.49;nan
40850;BME280;26571;41.610;25.380;2023-03-21T05:44:06;98224.25;;;11.95;nan
40850;BME280;26571;41.610;25.380;2023-03-21T05:46:32;98224.44;;;12.52;nan
40850;BME280;26571;41.610;25.380;2023-03-21T05:48:58;98226.06;;;13.04;nan
40850;BME280;26571;41.610;25.380;2023-03-21T05:51:23;98228.00;;;14.03;nan
40850;BME280;26571;41.610;25.380;2023-03-21T05:53:48;98220.34;;;15.04;nan
40850;BME280;26571;41.610;25.380;2023-03-21T05:56:14;98221.88;;;15.99;nan
40850;BME280;26571;41.610;25.380;2023-03-21T05:58:40;98206.31;;;16.29;nan
40850;BME280;26571;41.610;25.380;2023-03-21T06:01:06;98220.41;;;16.36;nan
40850;BME280;26571;41.610;25.380;2023-03-21T06:03:32;98214.72;;;16.13;nan
40850;BME280;26571;41.610;25.380;2023-03-21T06:05:57;98213.13;;;15.79;nan
40850;BME280;26571;41.610;25.380;2023-03-21T06:08:22;98212.47;;;15.43;nan
40850;BME280;26571;41.610;25.380;2023-03-21T06:10:48;98216.78;;;15.84;nan
40850;BME280;26571;41.610;25.380;2023-03-21T06:13:13;98202.19;;;16.46;nan
40850;BME280;26571;41.610;25.380;2023-03-21T06:15:40;98215.31;;;17.88;nan
40850;BME280;26571;41.610;25.380;2023-03-21T06:18:05;98197.72;;;18.97;nan
40850;BME280;26571;41.610;25.380;2023-03-21T06:20:31;98212.13;;;20.14;nan
40850;BME280;26571;41.610;25.380;2023-03-21T06:22:56;98196.41;;;20.94;nan
40850;BME280;26571;41.610;25.380;2023-03-21T06:25:22;98208.41;;;21.65;nan
40850;BME280;26571;41.610;25.380;2023-03-21T06:27:47;98205.06;;;22.08;nan
40850;BME280;26571;41.610;25.380;2023-03-21T06:30:13;98181.81;;;22.75;nan
40850;BME280;26571;41.610;25.380;2023-03-21T06:32:39;98205.47;;;23.54;nan
40850;BME280;26571;41.610;25.380;2023-03-21T06:35:05;98204.69;;;23.90;nan
40850;BME280;26571;41.610;25.380;2023-03-21T06:37:30;98199.72;;;24.09;nan
40850;BME280;26571;41.610;25.380;2023-03-21T06:39:56;98209.25;;;24.27;nan
40850;BME280;26571;41.610;25.380;2023-03-21T06:42:21;98206.13;;;24.03;nan
40850;BME280;26571;41.610;25.380;2023-03-21T06:44:47;98211.03;;;23.47;nan
40850;BME280;26571;41.610;25.380;2023-03-21T06:47:12;98209.97;;;23.48;nan
40850;BME280;26571;41.610;25.380;2023-03-21T06:49:37;98203.22;;;23.72;nan
40850;BME280;26571;41.610;25.380;2023-03-21T06:52:03;98201.13;;;23.80;nan
40850;BME280;26571;41.610;25.380;2023-03-21T06:54:28;98200.97;;;23.32;nan
40850;BME280;26571;41.610;25.380;2023-03-21T06:56:54;98208.00;;;21.28;nan
40850;BME280;26571;41.610;25.380;2023-03-21T06:59:20;98208.97;;;20.18;nan
40850;BME280;26571;41.610;25.380;2023-03-21T07:01:45;98176.66;;;18.40;nan
40850;BME280;26571;41.610;25.380;2023-03-21T07:04:11;98208.66;;;17.72;nan
40850;BME280;26571;41.610;25.380;2023-03-21T07:06:36;98218.94;;;16.40;nan
40850;BME280;26571;41.610;25.380;2023-03-21T07:09:03;98190.44;;;15.89;nan
40850;BME280;26571;41.610;25.380;2023-03-21T07:11:29;98211.06;;;16.00;nan
40850;BME280;26571;41.610;25.380;2023-03-21T07:13:55;98218.19;;;15.54;nan
40850;BME280;26571;41.610;25.380;2023-03-21T07:16:21;98216.50;;;15.26;nan
40850;BME280;26571;41.610;25.380;2023-03-21T07:18:47;98218.44;;;15.79;nan
40850;BME280;26571;41.610;25.380;2023-03-21T07:21:13;98182.41;;;16.29;nan
40850;BME280;26571;41.610;25.380;2023-03-21T07:23:38;98209.88;;;17.44;nan
40850;BME280;26571;41.610;25.380;2023-03-21T07:26:04;98205.38;;;18.38;nan
40850;BME280;26571;41.610;25.380;2023-03-21T07:28:30;98185.41;;;19.26;nan
40850;BME280;26571;41.610;25.380;2023-03-21T07:30:59;98199.53;;;19.56;nan
40850;BME280;26571;41.610;25.380;2023-03-21T07:33:26;98201.53;;;19.61;nan
40850;BME280;26571;41.610;25.380;2023-03-21T07:35:53;98198.06;;;19.30;nan
40850;BME280;26571;41.610;25.380;2023-03-21T07:38:18;98193.56;;;19.43;nan
40850;BME280;26571;41.610;25.380;2023-03-21T07:40:45;98194.06;;;19.51;nan
40850;BME280;26571;41.610;25.380;2023-03-21T07:43:11;98189.97;;;19.37;nan
40850;BME280;26571;41.610;25.380;2023-03-21T07:45:37;98193.25;;;19.51;nan
40850;BME280;26571;41.610;25.380;2023-03-21T07:48:02;98198.06;;;19.84;nan
40850;BME280;26571;41.610;25.380;2023-03-21T07:50:28;98187.69;;;19.64;nan
40850;BME280;26571;41.610;25.380;2023-03-21T07:52:53;98185.97;;;19.93;nan
40850;BME280;26571;41.610;25.380;2023-03-21T07:55:19;98194.91;;;19.99;nan
40850;BME280;26571;41.610;25.380;2023-03-21T07:57:44;98158.47;;;19.69;nan
40850;BME280;26571;41.610;25.380;2023-03-21T08:00:11;98175.88;;;19.60;nan
40850;BME280;26571;41.610;25.380;2023-03-21T08:02:37;98180.13;;;19.49;nan
40850;BME280;26571;41.610;25.380;2023-03-21T08:05:03;98181.28;;;19.53;nan
40850;BME280;26571;41.610;25.380;2023-03-21T08:07:29;98175.63;;;19.73;nan
40850;BME280;26571;41.610;25.380;2023-03-21T08:09:54;98176.47;;;19.97;nan
40850;BME280;26571;41.610;25.380;2023-03-21T08:12:20;98173.91;;;19.79;nan
40850;BME280;26571;41.610;25.380;2023-03-21T08:14:45;98170.88;;;19.87;nan
40850;BME280;26571;41.610;25.380;2023-03-21T08:17:10;98172.19;;;19.84;nan
40850;BME280;26571;41.610;25.380;2023-03-21T08:19:35;98178.56;;;19.95;nan
40850;BME280;26571;41.610;25.380;2023-03-21T08:22:01;98172.28;;;20.25;nan
40850;BME280;26571;41.610;25.380;2023-03-21T08:24:29;98174.66;;;20.38;nan
40850;BME280;26571;41.610;25.380;2023-03-21T08:26:55;98177.22;;;20.33;nan
40850;BME280;26571;41.610;25.380;2023-03-21T08:29:20;98182.22;;;20.41;nan
40850;BME280;26571;41.610;25.380;2023-03-21T08:31:46;98173.50;;;20.46;nan
40850;BME280;26571;41.610;25.380;2023-03-21T08:34:11;98172.00;;;20.38;nan
40850;BME280;26571;41.610;25.380;2023-03-21T08:36:37;98166.44;;;20.28;nan
40850;BME280;26571;41.610;25.380;2023-03-21T08:39:03;98164.47;;;20.23;nan
40850;BME280;26571;41.610;25.380;2023-03-21T08:41:32;98157.28;;;20.12;nan
40850;BME280;26571;41.610;25.380;2023-03-21T08:43:57;98162.97;;;20.04;nan
40850;BME280;26571;41.610;25.380;2023-03-21T08:46:22;98153.91;;;19.93;nan
40850;BME280;26571;41.610;25.380;2023-03-21T08:48:48;98152.78;;;19.89;nan
40850;BME280;26571;41.610;25.380;2023-03-21T08:51:13;98157.50;;;20.34;nan
40850;BME280;26571;41.610;25.380;2023-03-21T08:53:38;98161.81;;;19.88;nan
40850;BME280;26571;41.610;25.380;2023-03-21T08:56:05;98159.91;;;19.53;nan
40850;BME280;26571;41.610;25.380;2023-03-21T08:58:31;98162.13;;;19.56;nan
40850;BME280;26571;41.610;25.380;2023-03-21T09:00:56;98146.88;;;19.22;nan
40850;BME280;26571;41.610;25.380;2023-03-21T09:03:21;98146.41;;;18.83;nan
40850;BME280;26571;41.610;25.380;2023-03-21T09:05:46;98137.25;;;18.60;nan
40850;BME280;26571;41.610;25.380;2023-03-21T09:08:12;98134.91;;;18.16;nan
40850;BME280;26571;41.610;25.380;2023-03-21T09:10:37;98133.97;;;17.85;nan
40850;BME280;26571;41.610;25.380;2023-03-21T09:13:02;98139.28;;;17.67;nan
40850;BME280;26571;41.610;25.380;2023-03-21T09:15:28;98135.25;;;17.57;nan
40850;BME280;26571;41.610;25.380;2023-03-21T09:17:53;98136.13;;;17.51;nan
40850;BME280;26571;41.610;25.380;2023-03-21T09:20:21;98131.84;;;17.50;nan
40850;BME280;26571;41.610;25.380;2023-03-21T09:22:50;98141.00;;;17.54;nan
40850;BME280;26571;41.610;25.380;2023-03-21T09:25:16;98130.03;;;17.44;nan
40850;BME280;26571;41.610;25.380;2023-03-21T09:27:42;98126.78;;;17.42;nan
40850;BME280;26571;41.610;25.380;2023-03-21T09:30:12;98121.53;;;17.61;nan
40850;BME280;26571;41.610;25.380;2023-03-21T09:32:38;98119.59;;;17.68;nan
40850;BME280;26571;41.610;25.380;2023-03-21T09:35:04;98122.91;;;17.63;nan
40850;BME280;26571;41.610;25.380;2023-03-21T09:37:31;98114.53;;;17.85;nan
40850;BME280;26571;41.610;25.380;2023-03-21T09:39:57;98114.38;;;17.79;nan
40850;BME280;26571;41.610;25.380;2023-03-21T09:45:15;98119.81;;;18.28;nan
40850;BME280;26571;41.610;25.380;2023-03-21T09:47:44;98112.31;;;18.37;nan
40850;BME280;26571;41.610;25.380;2023-03-21T09:50:33;98119.66;;;18.41;nan
40850;BME280;26571;41.610;25.380;2023-03-21T09:55:34;98112.03;;;18.26;nan
40850;BME280;26571;41.610;25.380;2023-03-21T10:00:31;98116.31;;;18.09;nan
40850;BME280;26571;41.610;25.380;2023-03-21T10:02:59;98107.38;;;18.03;nan
40850;BME280;26571;41.610;25.380;2023-03-21T10:05:26;98112.47;;;17.87;nan
40850;BME280;26571;41.610;25.380;2023-03-21T10:07:55;98116.22;;;17.79;nan
40850;BME280;26571;41.610;25.380;2023-03-21T10:10:24;98119.34;;;17.76;nan
40850;BME280;26571;41.610;25.380;2023-03-21T10:12:52;98120.78;;;17.72;nan
40850;BME280;26571;41.610;25.380;2023-03-21T10:15:19;98123.69;;;17.70;nan
40850;BME280;26571;41.610;25.380;2023-03-21T10:17:49;98110.56;;;17.69;nan
40850;BME280;26571;41.610;25.380;2023-03-21T10:22:42;98110.91;;;17.79;nan
40850;BME280;26571;41.610;25.380;2023-03-21T10:25:11;98101.28;;;17.78;nan
40850;BME280;26571;41.610;25.380;2023-03-21T10:27:37;98101.03;;;17.86;nan
40850;BME280;26571;41.610;25.380;2023-03-21T10:30:03;98128.53;;;18.17;nan
40850;BME280;26571;41.610;25.380;2023-03-21T10:32:31;98087.16;;;18.14;nan
40850;BME280;26571;41.610;25.380;2023-03-21T10:34:57;98079.53;;;18.36;nan
40850;BME280;26571;41.610;25.380;2023-03-21T10:37:24;98080.34;;;18.37;nan
40850;BME280;26571;41.610;25.380;2023-03-21T10:39:50;98078.84;;;18.41;nan
40850;BME280;26571;41.610;25.380;2023-03-21T10:42:23;98070.13;;;18.64;nan
40850;BME280;26571;41.610;25.380;2023-03-21T10:44:50;98070.22;;;18.87;nan
40850;BME280;26571;41.610;25.380;2023-03-21T10:47:20;98071.53;;;18.96;nan
40850;BME280;26571;41.610;25.380;2023-03-21T10:49:46;98067.75;;;18.74;nan
40850;BME280;26571;41.610;25.380;2023-03-21T10:52:13;98061.66;;;18.85;nan
40850;BME280;26571;41.610;25.380;2023-03-21T10:54:41;98063.06;;;18.99;nan
40850;BME280;26571;41.610;25.380;2023-03-21T10:57:07;98053.03;;;19.25;nan
40850;BME280;26571;41.610;25.380;2023-03-21T10:59:55;98057.88;;;19.51;nan
40850;BME280;26571;41.610;25.380;2023-03-21T11:02:20;98046.88;;;19.71;nan
40850;BME280;26571;41.610;25.380;2023-03-21T11:04:48;98037.66;;;19.91;nan
40850;BME280;26571;41.610;25.380;2023-03-21T11:07:14;98046.66;;;20.13;nan
40850;BME280;26571;41.610;25.380;2023-03-21T11:12:11;98033.94;;;20.32;nan
40850;BME280;26571;41.610;25.380;2023-03-21T11:14:45;98025.66;;;20.33;nan
40850;BME280;26571;41.610;25.380;2023-03-21T11:22:13;98016.69;;;20.68;nan
40850;BME280;26571;41.610;25.380;2023-03-21T11:24:39;98006.22;;;20.67;nan
40850;BME280;26571;41.610;25.380;2023-03-21T11:27:06;98007.03;;;20.67;nan
40850;BME280;26571;41.610;25.380;2023-03-21T11:29:33;98004.53;;;20.60;nan
40850;BME280;26571;41.610;25.380;2023-03-21T11:32:00;97997.75;;;20.86;nan
40850;BME280;26571;41.610;25.380;2023-03-21T11:34:37;97988.38;;;21.23;nan
40850;BME280;26571;41.610;25.380;2023-03-21T11:37:15;97971.53;;;21.39;nan
40850;BME280;26571;41.610;25.380;2023-03-21T11:39:41;97966.44;;;21.59;nan
40850;BME280;26571;41.610;25.380;2023-03-21T11:42:25;97972.53;;;21.77;nan
40850;BME280;26571;41.610;25.380;2023-03-21T11:44:56;97963.78;;;21.86;nan
40850;BME280;26571;41.610;25.380;2023-03-21T11:47:21;97962.81;;;22.14;nan
40850;BME280;26571;41.610;25.380;2023-03-21T11:49:47;97953.78;;;22.26;nan
40850;BME280;26571;41.610;25.380;2023-03-21T12:00:09;97951.97;;;21.38;nan
40850;BME280;26571;41.610;25.380;2023-03-21T12:05:33;97939.06;;;21.57;nan
40850;BME280;26571;41.610;25.380;2023-03-21T12:16:13;97925.97;;;21.83;nan
40850;BME280;26571;41.610;25.380;2023-03-21T12:26:29;97931.81;;;20.47;nan
40850;BME280;26571;41.610;25.380;2023-03-21T12:29:02;97925.28;;;20.26;nan
40850;BME280;26571;41.610;25.380;2023-03-21T12:41:37;97902.31;;;20.58;nan
40850;BME280;26571;41.610;25.380;2023-03-21T12:44:06;97900.31;;;20.65;nan
40850;BME280;26571;41.610;25.380;2023-03-21T12:46:48;97900.53;;;20.81;nan
40850;BME280;26571;41.610;25.380;2023-03-21T12:51:41;97895.59;;;20.73;nan
40850;BME280;26571;41.610;25.380;2023-03-21T12:54:11;97879.97;;;20.64;nan
40850;BME280;26571;41.610;25.380;2023-03-21T13:01:55;97880.44;;;20.61;nan
40850;BME280;26571;41.610;25.380;2023-03-21T13:06:51;97882.00;;;20.74;nan
40850;BME280;26571;41.610;25.380;2023-03-21T13:09:51;97879.53;;;20.73;nan
40850;BME280;26571;41.610;25.380;2023-03-21T13:12:19;97881.50;;;20.60;nan
40850;BME280;26571;41.610;25.380;2023-03-21T13:17:44;97862.72;;;20.55;nan
40850;BME280;26571;41.610;25.380;2023-03-21T13:20:24;97861.72;;;20.61;nan
40850;BME280;26571;41.610;25.380;2023-03-21T13:22:50;97849.09;;;20.57;nan
40850;BME280;26571;41.610;25.380;2023-03-21T13:25:22;97856.38;;;20.61;nan
40850;BME280;26571;41.610;25.380;2023-03-21T13:30:23;97840.81;;;20.75;nan
40850;BME280;26571;41.610;25.380;2023-03-21T13:32:50;97828.78;;;20.78;nan
40850;BME280;26571;41.610;25.380;2023-03-21T13:35:23;97835.44;;;20.75;nan
40850;BME280;26571;41.610;25.380;2023-03-21T13:38:02;97829.53;;;20.73;nan
40850;BME280;26571;41.610;25.380;2023-03-21T13:40:36;97832.03;;;20.80;nan
40850;BME280;26571;41.610;25.380;2023-03-21T13:43:02;97827.69;;;20.74;nan
40850;BME280;26571;41.610;25.380;2023-03-21T13:47:55;97828.56;;;20.46;nan
40850;BME280;26571;41.610;25.380;2023-03-21T13:50:22;97829.63;;;20.45;nan
40850;BME280;26571;41.610;25.380;2023-03-21T13:55:40;97826.69;;;20.63;nan
40850;BME280;26571;41.610;25.380;2023-03-21T14:03:45;97824.88;;;20.47;nan
40850;BME280;26571;41.610;25.380;2023-03-21T14:06:13;97827.09;;;20.38;nan
40850;BME280;26571;41.610;25.380;2023-03-21T14:08:40;97822.25;;;20.35;nan
40850;BME280;26571;41.610;25.380;2023-03-21T14:11:08;97820.16;;;20.20;nan
40850;BME280;26571;41.610;25.380;2023-03-21T14:13:35;97816.53;;;20.09;nan
40850;BME280;26571;41.610;25.380;2023-03-21T14:16:06;97833.03;;;20.06;nan
40850;BME280;26571;41.610;25.380;2023-03-21T14:18:38;97824.75;;;19.91;nan
40850;BME280;26571;41.610;25.380;2023-03-21T14:21:04;97830.00;;;19.57;nan
40850;BME280;26571;41.610;25.380;2023-03-21T14:23:30;97830.41;;;19.37;nan
40850;BME280;26571;41.610;25.380;2023-03-21T14:25:55;97829.84;;;19.35;nan
40850;BME280;26571;41.610;25.380;2023-03-21T14:28:24;97824.38;;;19.42;nan
40850;BME280;26571;41.610;25.380;2023-03-21T14:30:51;97815.78;;;19.40;nan
40850;BME280;26571;41.610;25.380;2023-03-21T14:33:21;97818.16;;;19.25;nan
40850;BME280;26571;41.610;25.380;2023-03-21T14:35:47;97818.78;;;19.03;nan
40850;BME280;26571;41.610;25.380;2023-03-21T14:38:23;97818.94;;;18.97;nan
40850;BME280;26571;41.610;25.380;2023-03-21T14:40:49;97823.09;;;18.93;nan
40850;BME280;26571;41.610;25.380;2023-03-21T14:43:15;97816.06;;;18.75;nan
40850;BME280;26571;41.610;25.380;2023-03-21T14:45:42;97818.38;;;18.71;nan
40850;BME280;26571;41.610;25.380;2023-03-21T14:48:12;97824.38;;;18.67;nan
40850;BME280;26571;41.610;25.380;2023-03-21T14:50:50;97820.66;;;18.68;nan
40850;BME280;26571;41.610;25.380;2023-03-21T14:53:21;97823.59;;;18.78;nan
40850;BME280;26571;41.610;25.380;2023-03-21T14:55:50;97822.22;;;18.75;nan
40850;BME280;26571;41.610;25.380;2023-03-21T14:58:18;97806.31;;;18.69;nan
40850;BME280;26571;41.610;25.380;2023-03-21T15:00:46;97826.94;;;18.73;nan
40850;BME280;26571;41.610;25.380;2023-03-21T15:03:12;97828.09;;;18.66;nan
40850;BME280;26571;41.610;25.380;2023-03-21T15:05:38;97821.25;;;18.58;nan
40850;BME280;26571;41.610;25.380;2023-03-21T15:08:16;97821.75;;;18.55;nan
40850;BME280;26571;41.610;25.380;2023-03-21T15:10:41;97818.00;;;18.44;nan
40850;BME280;26571;41.610;25.380;2023-03-21T15:13:18;97828.22;;;18.36;nan